Latest Weather Observations for Samuel Hill

IDQ60801

Issued at 6:12 pm EST Sunday 15 September 2019 (issued every 10 minutes, with the page automatically refreshed every 10 minutes)

About weather observations | Map of weather stations | Latest weather observations for QLD | Other Formats
Station Details ID: 033308 Name: SAMUEL HILL AERO Lat: -22.74 Lon: 150.66 Height: 31.0 m
Data from the previous 72 hours. | See also: Recent months at Samuel Hill
Date/Time
EST
Temp
°C
App
Temp
°C
Dew
Point
°C
Rel
Hum
%
Delta-T
°C
Wind Press
QNH
hPa
Press
MSL
hPa
Rain since
9am
mm
Dir  Spd
km/h
Gust
km/h
Spd
kts
Gust
kts
15/06:00pm 19.6 19.5 13.8 69 3.3 E 7 9 4 5 1022.7 1022.6 0.0
15/05:30pm 21.2 20.6 13.6 62 4.4 E 9 15 5 8 1022.6 1022.5 0.0
15/05:00pm 22.2 20.7 13.0 56 5.3 E 13 17 7 9 1022.3 1022.2 0.0
15/04:30pm 23.3 21.6 12.3 50 6.3 ENE 13 20 7 11 1021.9 1021.8 0.0
15/04:00pm 24.2 22.2 11.5 45 7.1 NE 13 24 7 13 1021.8 1021.7 0.0
15/03:30pm 24.7 21.5 8.6 36 8.7 E 15 22 8 12 1021.5 1021.4 0.0
15/03:00pm 24.7 22.0 9.0 37 8.5 E 13 19 7 10 1021.4 1021.3 0.0
15/02:30pm 25.3 21.6 6.5 30 9.8 NE 15 24 8 13 1021.4 1021.3 0.0
15/02:00pm 25.3 22.5 8.7 35 8.9 ENE 13 22 7 12 1021.5 1021.4 0.0
15/01:30pm 25.8 22.6 8.3 33 9.4 ENE 15 24 8 13 1021.8 1021.7 0.0
15/01:00pm 25.4 23.1 10.4 39 8.3 ENE 13 20 7 11 1022.3 1022.2 0.0
15/12:30pm 25.6 23.3 10.6 39 8.4 NE 13 20 7 11 1022.6 1022.5 0.0
15/12:00pm 26.0 24.4 12.8 44 7.6 NE 13 24 7 13 1022.9 1022.8 0.0
15/11:30am 25.3 23.5 12.2 44 7.5 ENE 13 24 7 13 1023.2 1023.1 0.0
15/11:00am 24.3 23.9 12.9 49 6.6 NNW 7 11 4 6 1023.7 1023.6 0.0
15/10:30am 24.3 23.7 13.5 51 6.3 E 9 15 5 8 1024.1 1024.0 0.0
15/10:00am 23.1 22.6 13.8 55 5.4 N 9 13 5 7 1024.3 1024.2 0.0
15/09:30am 22.9 22.3 14.7 60 4.9 ENE 11 17 6 9 1024.1 1024.0 0.0
15/09:00am 21.8 22.7 16.5 72 3.2 NE 7 13 4 7 1024.3 1024.2 0.0
15/08:30am 18.3 19.8 14.6 79 2.1 CALM 0 2 0 1 1024.3 1024.2 0.0
15/08:29am 18.4 20.0 14.9 80 2.0 CALM 0 2 0 1 1024.3 1024.2 0.0
15/08:09am 16.3 17.4 13.6 84 1.5 CALM 0 0 0 0 1024.2 1024.1 0.0
15/08:00am 15.4 16.5 13.4 88 1.1 CALM 0 0 0 0 1024.2 1024.1 0.0
15/07:30am 12.8 13.2 11.2 90 0.8 CALM 0 0 0 0 1023.5 1023.4 0.0
15/07:00am 10.2 10.1 9.4 95 0.4 CALM 0 0 0 0 1023.1 1023.0 0.0
15/06:30am 8.6 8.1 8.0 96 0.3 CALM 0 0 0 0 1022.6 1022.5 0.0
15/06:01am 7.2 6.3 6.1 93 0.5 CALM 0 0 0 0 1022.1 1022.0 0.0
15/06:00am 7.2 6.3 6.1 93 0.5 CALM 0 0 0 0 1022.1 1022.0 0.0
15/05:41am 7.5 6.7 6.6 94 0.4 CALM 0 0 0 0 1021.6 1021.5 0.0
15/05:30am 7.9 7.2 7.1 95 0.4 CALM 0 0 0 0 1021.5 1021.4 0.0
15/05:03am 8.4 7.8 7.6 95 0.4 CALM 0 0 0 0 1021.2 1021.1 0.0
15/05:00am 8.4 7.8 7.6 95 0.4 CALM 0 0 0 0 1021.1 1021.0 0.0
15/04:51am 8.2 7.6 7.4 95 0.4 CALM 0 0 0 0 1021.0 1020.9 0.0
15/04:30am 8.7 8.3 8.1 96 0.3 CALM 0 0 0 0 1020.7 1020.6 0.0
15/04:00am 8.7 8.3 8.1 96 0.3 CALM 0 0 0 0 1020.5 1020.4 0.0
15/03:30am 9.0 8.6 8.4 96 0.3 CALM 0 0 0 0 1020.3 1020.2 0.0
15/03:00am 8.9 8.5 8.1 95 0.4 CALM 0 0 0 0 1020.2 1020.1 0.0
15/02:30am 8.5 8.0 7.7 95 0.4 CALM 0 0 0 0 1020.2 1020.1 0.0
15/02:00am 8.6 8.1 7.7 94 0.4 CALM 0 0 0 0 1020.3 1020.2 0.0
15/01:30am 8.3 7.7 7.2 93 0.5 CALM 0 0 0 0 1020.5 1020.4 0.0
15/01:01am 9.0 7.4 7.8 92 0.6 W 6 7 3 4 1021.0 1020.9 0.0
15/01:00am 9.0 7.4 7.8 92 0.6 W 6 7 3 4 1021.0 1020.9 0.0
15/12:43am 9.0 8.5 7.9 93 0.5 CALM 0 0 0 0 1021.2 1021.1 0.0
15/12:30am 9.2 8.7 8.0 92 0.6 CALM 0 0 0 0 1021.3 1021.2 0.0
15/12:00am 9.2 8.7 8.0 92 0.6 CALM 0 0 0 0 1021.5 1021.4 0.0
 
Date/Time
EST
Temp
°C
App
Temp
°C
Dew
Point
°C
Rel
Hum
%
Delta-T
°C
Wind Press
QNH
hPa
Press
MSL
hPa
Rain since
9am
mm
Dir  Spd
km/h
Gust
km/h
Spd
kts
Gust
kts
14/11:33pm 9.4 9.0 8.2 92 0.6 CALM 0 0 0 0 1021.5 1021.4 0.0
14/11:30pm 9.5 9.1 8.3 92 0.6 CALM 0 0 0 0 1021.5 1021.4 0.0
14/11:16pm 9.4 8.9 8.0 91 0.7 CALM 0 0 0 0 1021.5 1021.4 0.0
14/11:00pm 9.2 8.6 7.6 90 0.8 CALM 0 0 0 0 1021.6 1021.5 0.0
14/10:30pm 9.8 9.4 8.2 90 0.8 CALM 0 0 0 0 1021.7 1021.6 0.0
14/10:00pm 10.3 10.0 8.6 89 0.8 CALM 0 0 0 0 1021.7 1021.6 0.0
14/09:30pm 10.7 10.4 8.8 88 0.9 CALM 0 0 0 0 1021.7 1021.6 0.0
14/09:00pm 11.5 11.4 9.4 87 1.1 CALM 0 0 0 0 1021.6 1021.5 0.0
14/08:30pm 12.1 12.2 10.0 87 1.1 CALM 0 0 0 0 1021.5 1021.4 0.0
14/08:00pm 12.8 12.9 10.2 84 1.3 CALM 0 0 0 0 1021.4 1021.3 0.0
14/07:30pm 14.1 14.4 10.9 81 1.7 CALM 0 0 0 0 1021.3 1021.2 0.0
14/07:00pm 15.6 14.8 11.2 75 2.3 NNE 6 7 3 4 1020.9 1020.8 0.0
14/06:30pm 17.3 16.4 11.3 68 3.3 NE 7 9 4 5 1020.7 1020.6 0.0
14/06:00pm 19.4 18.2 11.7 61 4.2 NNE 9 11 5 6 1020.4 1020.3 0.0
14/05:30pm 21.4 19.6 10.9 51 5.8 NE 11 15 6 8 1020.1 1020.0 0.0
14/05:00pm 23.2 19.5 6.1 33 8.7 NNE 15 20 8 11 1019.9 1019.8 0.0
14/04:30pm 24.6 20.8 5.9 30 9.6 NE 15 20 8 11 1019.6 1019.5 0.0
14/04:00pm 25.5 22.1 5.7 28 10.1 NE 13 20 7 11 1019.5 1019.4 0.0
14/03:30pm 25.9 22.4 5.5 27 10.5 NNE 13 19 7 10 1019.4 1019.3 0.0
14/03:00pm 26.1 22.0 6.2 28 10.3 NNE 17 26 9 14 1019.4 1019.3 0.0
14/02:30pm 26.6 22.4 5.5 26 10.9 NE 17 28 9 15 1019.3 1019.2 0.0
14/02:00pm 27.5 23.9 5.1 24 11.5 NE 13 20 7 11 1019.6 1019.5 0.0
14/01:30pm 27.1 23.3 6.0 26 11.0 NE 15 28 8 15 1019.9 1019.8 0.0
14/01:00pm 26.8 22.6 5.7 26 10.9 NE 17 26 9 14 1020.4 1020.3 0.0
14/12:30pm 27.6 24.2 5.8 25 11.3 NNE 13 24 7 13 1020.8 1020.7 0.0
14/12:00pm 27.1 24.2 6.5 27 10.8 NNE 11 20 6 11 1021.3 1021.2 0.0
14/11:30am 26.9 24.1 6.9 28 10.6 NNE 11 20 6 11 1021.7 1021.6 0.0
14/11:00am 26.6 23.9 5.5 26 10.8 N 9 13 5 7 1022.2 1022.1 0.0
14/10:30am 26.2 23.8 4.1 24 11.1 E 6 15 3 8 1022.6 1022.5 0.0
14/10:00am 25.2 22.9 5.9 29 9.9 ESE 7 13 4 7 1022.8 1022.7 0.0
14/09:30am 23.9 22.8 8.3 37 8.3 NE 4 9 2 5 1023.0 1022.9 0.0
14/09:00am 22.2 21.4 11.0 49 6.2 E 6 9 3 5 1023.2 1023.1 0.0
14/08:30am 19.3 19.4 12.6 65 3.8 SE 4 7 2 4 1023.2 1023.1 0.0
14/08:00am 16.4 17.3 12.9 80 1.9 CALM 0 0 0 0 1023.1 1023.0 0.0
14/07:30am 13.4 14.1 12.3 93 0.6 CALM 0 0 0 0 1022.8 1022.7 0.0
14/07:00am 10.4 10.5 10.1 98 0.2 CALM 0 0 0 0 1022.4 1022.3 0.0
14/06:30am 8.3 7.8 7.7 96 0.3 CALM 0 0 0 0 1022.0 1021.9 0.0
14/06:15am 7.3 6.5 6.6 95 0.3 CALM 0 0 0 0 1021.8 1021.7 0.0
14/06:00am 7.1 6.2 6.2 94 0.4 CALM 0 0 0 0 1021.8 1021.7 0.0
14/05:40am 7.1 6.2 6.0 93 0.5 CALM 0 0 0 0 1021.6 1021.5 0.0
14/05:30am 7.5 6.7 6.6 94 0.4 CALM 0 0 0 0 1021.5 1021.4 0.0
14/05:17am 8.0 7.4 7.2 95 0.4 CALM 0 0 0 0 1021.5 1021.4 0.0
14/05:00am 8.5 8.0 7.9 96 0.3 CALM 0 0 0 0 1021.4 1021.3 0.0
14/04:30am 8.7 8.2 7.9 95 0.4 CALM 0 0 0 0 1021.2 1021.1 0.0
14/04:00am 9.1 8.8 8.6 97 0.2 CALM 0 0 0 0 1021.2 1021.1 0.0
14/03:30am 9.5 9.3 9.0 97 0.2 CALM 0 0 0 0 1020.9 1020.8 0.0
14/03:00am 8.8 8.3 7.9 94 0.4 CALM 0 0 0 0 1020.9 1020.8 0.0
14/02:59am 8.8 8.3 7.9 94 0.4 CALM 0 0 0 0 1020.9 1020.8 0.0
14/02:43am 8.3 7.7 7.2 93 0.5 CALM 0 0 0 0 1020.8 1020.7 0.0
14/02:30am 8.2 7.5 7.0 92 0.6 CALM 0 0 0 0 1020.9 1020.8 0.0
14/02:00am 8.6 8.0 7.4 92 0.6 CALM 0 0 0 0 1021.1 1021.0 0.0
14/01:30am 8.8 8.2 7.6 92 0.6 CALM 0 0 0 0 1021.2 1021.1 0.0
14/01:00am 9.4 7.8 8.2 92 0.6 SSE 6 9 3 5 1021.2 1021.1 0.0
14/12:30am 9.4 8.6 8.0 91 0.7 NNE 2 6 1 3 1021.2 1021.1 0.0
14/12:00am 9.6 9.2 8.2 91 0.7 CALM 0 0 0 0 1021.5 1021.4 0.0
 
Date/Time
EST
Temp
°C
App
Temp
°C
Dew
Point
°C
Rel
Hum
%
Delta-T
°C
Wind Press
QNH
hPa
Press
MSL
hPa
Rain since
9am
mm
Dir  Spd
km/h
Gust
km/h
Spd
kts
Gust
kts
13/11:30pm 10.1 9.8 8.5 90 0.8 CALM 0 0 0 0 1021.7 1021.6 0.0
13/11:00pm 10.7 10.5 9.1 90 0.8 CALM 0 0 0 0 1021.5 1021.4 0.0
13/10:30pm 10.9 10.7 9.0 88 0.9 CALM 0 0 0 0 1021.6 1021.5 0.0
13/10:00pm 11.8 11.8 9.9 88 1.0 CALM 0 0 0 0 1021.6 1021.5 0.0
13/09:30pm 12.3 12.4 10.0 86 1.2 CALM 0 0 0 0 1021.4 1021.3 0.0
13/09:00pm 13.0 12.1 10.5 85 1.3 E 6 7 3 4 1021.4 1021.3 0.0
13/08:30pm 14.3 14.8 11.5 83 1.5 CALM 0 0 0 0 1021.2 1021.1 0.0
13/08:00pm 16.8 16.4 13.1 79 2.1 NW 7 9 4 5 1021.0 1020.9 0.0
13/07:30pm 18.1 18.0 14.0 77 2.3 NW 7 9 4 5 1020.9 1020.8 0.0
13/07:00pm 18.3 18.0 13.4 73 2.8 NNW 7 9 4 5 1020.7 1020.6 0.0
13/06:30pm 19.4 18.8 13.6 69 3.3 NNW 9 13 5 7 1020.5 1020.4 0.0
13/06:00pm 20.1 19.5 13.6 66 3.7 N 9 13 5 7 1020.2 1020.1 0.0
13/05:30pm 21.6 20.8 14.0 62 4.4 N 11 13 6 7 1019.7 1019.6 0.0
13/05:00pm 22.8 21.5 13.6 56 5.3 N 13 19 7 10 1019.4 1019.3 0.0
13/04:30pm 23.9 22.2 12.5 49 6.5 N 13 20 7 11 1019.2 1019.1 0.0
13/04:00pm 25.1 22.3 8.6 35 8.9 NE 13 19 7 10 1019.2 1019.1 0.0
13/03:30pm 24.9 22.0 11.1 42 7.8 NE 17 24 9 13 1019.1 1019.0 0.0
13/03:00pm 25.7 22.6 10.3 38 8.6 NNE 17 22 9 12 1019.2 1019.1 0.0
13/02:30pm 26.7 22.9 7.7 30 10.2 NE 17 26 9 14 1019.0 1018.9 0.0
13/02:00pm 26.8 24.6 9.2 33 9.6 NE 11 24 6 13 1019.0 1018.9 0.0
13/01:30pm 27.5 23.8 6.3 26 11.1 SE 15 22 8 12 1019.5 1019.4 0.0
13/01:00pm 26.8 23.8 7.8 30 10.2 SE 13 20 7 11 1019.9 1019.8 0.0
13/12:30pm 26.7 23.7 7.7 30 10.2 SSE 13 20 7 11 1020.6 1020.5 0.0
13/12:00pm 26.2 23.2 7.7 31 9.8 E 13 20 7 11 1021.3 1021.2 0.0
13/11:30am 25.7 23.0 9.1 35 9.1 SE 13 19 7 10 1022.0 1021.9 0.0
13/11:00am 24.9 22.9 10.0 39 8.2 E 11 17 6 9 1022.5 1022.4 0.0
13/10:30am 24.1 23.4 12.1 47 6.8 NW 7 11 4 6 1023.1 1023.0 0.0
13/10:00am 23.4 23.0 12.4 50 6.3 NE 6 11 3 6 1023.5 1023.4 0.0
13/09:30am 21.9 22.0 14.0 61 4.6 WSW 6 11 3 6 1023.7 1023.6 0.0
13/09:00am 20.7 20.7 14.1 66 3.8 WNW 7 11 4 6 1023.9 1023.8 0.0
13/08:30am 19.2 20.0 14.7 75 2.6 S 4 7 2 4 1024.0 1023.9 0.0
13/08:00am 16.4 16.6 14.2 87 1.2 SSW 6 7 3 4 1024.0 1023.9 0.0
13/07:30am 14.0 15.0 13.2 95 0.4 CALM 0 6 0 3 1023.7 1023.6 0.0
13/07:00am 11.1 11.3 10.6 97 0.3 CALM 0 0 0 0 1023.4 1023.3 0.0
13/06:30am 8.1 7.5 7.5 96 0.3 CALM 0 0 0 0 1023.1 1023.0 0.0
13/06:00am 7.2 6.4 6.3 94 0.4 CALM 0 0 0 0 1022.8 1022.7 0.0
13/05:30am 7.4 6.6 6.5 94 0.4 CALM 0 0 0 0 1022.7 1022.6 0.0
13/05:00am 7.7 7.0 6.8 94 0.4 CALM 0 0 0 0 1022.5 1022.4 0.0
13/04:30am 7.5 6.7 6.4 93 0.5 CALM 0 0 0 0 1022.2 1022.1 0.0
13/04:00am 7.8 7.1 6.9 94 0.4 CALM 0 0 0 0 1022.1 1022.0 0.0
13/03:30am 8.2 6.4 7.3 94 0.4 ESE 6 6 3 3 1022.1 1022.0 0.0
13/03:22am 8.3 6.6 7.4 94 0.4 ESE 6 7 3 4 1022.1 1022.0 0.0
13/03:00am 8.4 7.8 7.5 94 0.4 CALM 0 7 0 4 1022.2 1022.1 0.0
13/02:45am 8.2 7.5 7.1 93 0.5 CALM 0 0 0 0 1022.0 1021.9 0.0
13/02:30am 8.4 7.8 7.3 93 0.5 CALM 0 0 0 0 1022.4 1022.3 0.0
13/02:00am 8.6 8.0 7.5 93 0.5 CALM 0 0 0 0 1022.8 1022.7 0.0
13/01:30am 9.0 8.5 7.9 93 0.5 CALM 0 0 0 0 1023.1 1023.0 0.0
13/01:00am 9.2 8.7 8.0 92 0.6 CALM 0 0 0 0 1023.4 1023.3 0.0
13/12:30am 9.4 9.0 8.2 92 0.6 CALM 0 0 0 0 1023.5 1023.4 0.0
13/12:00am 9.9 9.6 8.7 92 0.6 CALM 0 0 0 0 1023.8 1023.7 0.0
 
Date/Time
EST
Temp
°C
App
Temp
°C
Dew
Point
°C
Rel
Hum
%
Delta-T
°C
Wind Press
QNH
hPa
Press
MSL
hPa
Rain since
9am
mm
Dir  Spd
km/h
Gust
km/h
Spd
kts
Gust
kts
12/11:30pm 9.8 9.4 8.4 91 0.7 CALM 0 0 0 0 1024.1 1024.0 0.0
12/11:00pm 10.3 10.1 9.1 92 0.6 CALM 0 0 0 0 1024.3 1024.2 0.0
12/10:30pm 10.5 10.3 9.1 91 0.7 CALM 0 0 0 0 1024.3 1024.2 0.0
12/10:00pm 11.1 11.0 9.5 90 0.8 CALM 0 0 0 0 1024.4 1024.3 0.0
12/09:30pm 11.3 11.3 9.7 90 0.8 CALM 0 0 0 0 1024.4 1024.3 0.0
12/09:00pm 11.7 11.7 9.9 89 0.9 CALM 0 0 0 0 1024.4 1024.3 0.0
12/08:30pm 12.1 12.2 10.2 88 1.0 CALM 0 0 0 0 1024.4 1024.3 0.0
12/08:00pm 12.8 12.7 10.7 87 1.1 E 2 6 1 3 1024.2 1024.1 0.0
12/07:30pm 13.5 13.8 10.9 84 1.4 CALM 0 0 0 0 1024.1 1024.0 0.0
12/07:00pm 14.3 14.7 11.3 82 1.6 CALM 0 0 0 0 1023.8 1023.7 0.0
12/06:30pm 16.3 15.9 12.3 77 2.2 SE 6 7 3 4 1023.6 1023.5 0.0

Other formats

Comma delimited format used in spreadsheet applications
http://www.bom.gov.au/fwo/IDQ60801/IDQ60801.94370.axf

JavaScript Object Notation format (JSON) in row-major order
http://www.bom.gov.au/fwo/IDQ60801/IDQ60801.94370.json

Data quality

Most of these data are generated automatically and are frequently updated. Quality checks on data are not normally performed. It is possible for incorrect values to appear. Refer to information at About Latest Weather Observations and please check the disclaimer before using these data.